createdAt,value
2022-11-17T00:03:30.925Z,8.30
2022-11-17T00:08:33.217Z,8.30
2022-11-17T00:13:56.991Z,7.90
2022-11-17T00:19:17.843Z,7.70
2022-11-17T00:24:19.742Z,9.10
2022-11-17T00:29:21.614Z,7.10
2022-11-17T00:34:24.016Z,8.90
2022-11-17T00:39:25.863Z,7.40
2022-11-17T00:44:27.859Z,8.30
2022-11-17T00:49:29.755Z,8.40
2022-11-17T00:54:31.592Z,5.20
2022-11-17T00:59:33.496Z,5.10
2022-11-17T01:04:35.321Z,6.00
2022-11-17T01:09:37.184Z,5.20
2022-11-17T01:14:39.089Z,4.70
2022-11-17T01:19:41.125Z,4.70
2022-11-17T01:24:42.987Z,5.60
2022-11-17T01:29:44.894Z,4.80
2022-11-17T01:34:47.573Z,4.90
2022-11-17T01:39:50.827Z,6.00
2022-11-17T01:45:01.812Z,5.90
2022-11-17T01:50:03.689Z,6.00
2022-11-17T01:55:08.771Z,7.60
2022-11-17T02:00:12.094Z,6.30
2022-11-17T02:06:11.675Z,8.10
2022-11-17T02:11:18.221Z,7.00
2022-11-17T02:16:20.322Z,7.60
2022-11-17T02:22:02.208Z,7.10
2022-11-17T02:27:32.215Z,7.40
2022-11-17T02:32:59.510Z,5.20
2022-11-17T02:38:27.491Z,6.40
2022-11-17T02:43:59.411Z,6.10
2022-11-17T02:49:08.426Z,5.20
2022-11-17T02:54:11.704Z,4.80
2022-11-17T02:59:17.072Z,4.50
2022-11-17T03:04:22.012Z,5.70
2022-11-17T03:09:44.519Z,6.60
2022-11-17T03:15:04.590Z,5.70
2022-11-17T03:20:14.392Z,6.60
2022-11-17T03:25:21.614Z,6.40
2022-11-17T03:30:25.688Z,6.10
2022-11-17T03:35:32.402Z,4.80
2022-11-17T03:40:39.453Z,5.80
2022-11-17T03:45:47.405Z,4.60
2022-11-17T03:50:57.937Z,4.70
2022-11-17T03:56:11.083Z,5.20
2022-11-17T04:01:14.947Z,4.30
2022-11-17T04:06:16.838Z,5.50
2022-11-17T04:11:37.596Z,4.60
2022-11-17T04:16:39.395Z,5.10
2022-11-17T04:21:41.373Z,4.50
2022-11-17T04:27:02.049Z,5.50
2022-11-17T04:32:04.073Z,5.10
2022-11-17T04:37:17.376Z,4.30
2022-11-17T04:42:19.490Z,4.30
2022-11-17T04:47:21.342Z,4.60
2022-11-17T04:52:26.891Z,4.80
2022-11-17T04:57:31.597Z,3.70
2022-11-17T05:02:33.457Z,3.30
2022-11-17T05:07:35.401Z,3.40
2022-11-17T05:12:56.030Z,3.90
2022-11-17T05:17:57.835Z,3.70
2022-11-17T05:23:18.361Z,4.00
2022-11-17T05:28:20.214Z,3.20
2022-11-17T05:33:21.985Z,3.70
2022-11-17T05:38:23.877Z,4.50
2022-11-17T05:43:25.743Z,3.30
2022-11-17T05:48:27.738Z,3.70
2022-11-17T05:53:30.379Z,4.00
2022-11-17T05:58:36.607Z,2.00
2022-11-17T06:03:42.282Z,2.70
2022-11-17T06:08:44.123Z,2.90
2022-11-17T06:13:45.964Z,3.30
2022-11-17T06:18:55.325Z,2.50
2022-11-17T06:23:58.154Z,1.80
2022-11-17T06:29:02.287Z,1.00
2022-11-17T06:34:05.235Z,1.40
2022-11-17T06:39:07.034Z,1.40
2022-11-17T06:44:08.907Z,0.90
2022-11-17T06:49:10.731Z,1.30
2022-11-17T06:54:14.839Z,2.00
2022-11-17T06:59:17.420Z,2.70
2022-11-17T07:04:19.640Z,1.40
2022-11-17T07:09:21.614Z,1.20
2022-11-17T07:14:23.565Z,1.20
2022-11-17T07:19:25.482Z,1.10
2022-11-17T07:24:27.409Z,2.40
2022-11-17T07:29:30.958Z,2.50
2022-11-17T07:34:32.832Z,2.10
2022-11-17T07:39:34.717Z,1.50
2022-11-17T07:44:36.593Z,1.60
2022-11-17T07:49:38.481Z,1.00
2022-11-17T07:54:40.840Z,1.20
2022-11-17T07:59:42.692Z,1.10
2022-11-17T08:04:44.578Z,1.40
2022-11-17T08:09:46.501Z,1.10
2022-11-17T08:14:48.424Z,1.00
2022-11-17T08:19:50.444Z,1.10
2022-11-17T08:24:52.333Z,1.40
2022-11-17T08:29:54.284Z,1.10
2022-11-17T08:34:56.174Z,1.10
2022-11-17T08:39:58.012Z,0.90
2022-11-17T08:45:00.670Z,1.20
2022-11-17T08:50:03.133Z,0.80
2022-11-17T08:55:05.980Z,0.80
2022-11-17T09:00:08.775Z,0.70
2022-11-17T09:05:10.667Z,1.20
2022-11-17T09:10:12.937Z,1.40
2022-11-17T09:15:14.834Z,1.40
2022-11-17T09:20:17.791Z,1.40
2022-11-17T09:25:19.629Z,1.60
2022-11-17T09:30:22.491Z,1.30
2022-11-17T09:35:24.313Z,1.30
2022-11-17T09:40:26.601Z,2.00
2022-11-17T09:45:35.247Z,2.30
2022-11-17T09:50:39.394Z,3.00
2022-11-17T09:55:45.528Z,3.20
2022-11-17T10:00:49.032Z,1.60
2022-11-17T10:05:52.200Z,1.50
2022-11-17T10:10:54.051Z,1.20
2022-11-17T10:16:01.113Z,1.80
2022-11-17T10:21:05.501Z,1.60
2022-11-17T10:26:09.961Z,1.10
2022-11-17T10:31:19.550Z,1.30
2022-11-17T10:36:29.176Z,1.70
2022-11-17T10:41:41.351Z,2.40
2022-11-17T10:47:08.208Z,2.10
2022-11-17T10:52:16.959Z,2.10
2022-11-17T10:57:26.717Z,1.90
2022-11-17T11:02:36.298Z,2.30
2022-11-17T11:07:39.888Z,1.90
2022-11-17T11:12:47.789Z,1.70
2022-11-17T11:17:51.160Z,2.50
2022-11-17T11:22:55.913Z,2.10
2022-11-17T11:28:19.516Z,7.80
2022-11-17T11:33:36.699Z,2.10
2022-11-17T11:38:50.280Z,2.00
2022-11-17T11:43:58.193Z,1.80
2022-11-17T11:49:12.972Z,1.60
2022-11-17T11:54:51.203Z,1.80
2022-11-17T12:00:04.467Z,3.30
2022-11-17T12:05:20.279Z,2.10
2022-11-17T12:10:42.069Z,1.30
2022-11-17T12:15:44.168Z,1.90
2022-11-17T12:20:52.083Z,2.90
2022-11-17T12:25:59.168Z,2.00
2022-11-17T12:31:10.664Z,3.20
2022-11-17T12:36:18.540Z,2.10
2022-11-17T12:41:48.346Z,2.20
2022-11-17T12:46:55.741Z,3.00
2022-11-17T12:52:07.042Z,2.20
2022-11-17T12:57:14.755Z,2.00
2022-11-17T13:02:47.946Z,2.30
2022-11-17T13:07:50.277Z,2.40
2022-11-17T13:13:13.115Z,3.20
2022-11-17T13:18:28.594Z,2.60
2022-11-17T13:23:33.670Z,3.90
2022-11-17T13:28:35.590Z,4.20
2022-11-17T13:33:40.403Z,3.90
2022-11-17T13:38:53.198Z,3.20
2022-11-17T13:43:56.144Z,4.50
2022-11-17T13:48:58.024Z,4.20
2022-11-17T13:54:01.147Z,3.10
2022-11-17T13:59:18.157Z,4.30
2022-11-17T14:04:23.183Z,3.40
2022-11-17T14:09:27.374Z,2.30
2022-11-17T14:14:38.415Z,2.40
2022-11-17T14:19:41.006Z,3.30
2022-11-17T14:24:42.858Z,2.50
2022-11-17T14:29:44.958Z,3.40
2022-11-17T14:34:46.906Z,3.70
2022-11-17T14:39:48.770Z,4.40
2022-11-17T14:44:50.593Z,4.10
2022-11-17T14:49:52.404Z,3.40
2022-11-17T14:54:54.274Z,3.10
2022-11-17T14:59:56.165Z,4.60
2022-11-17T15:05:00.183Z,3.00
2022-11-17T15:10:03.107Z,3.40
2022-11-17T15:15:05.520Z,3.80
2022-11-17T15:20:08.084Z,4.00
2022-11-17T15:25:10.017Z,4.30
2022-11-17T15:30:12.524Z,5.30
2022-11-17T15:35:14.419Z,4.50
2022-11-17T15:40:19.432Z,3.00
2022-11-17T15:45:21.690Z,3.60
2022-11-17T15:50:23.509Z,4.00
2022-11-17T15:55:25.338Z,4.40
2022-11-17T16:00:27.204Z,4.10
2022-11-17T16:05:29.052Z,6.40
2022-11-17T16:10:30.883Z,5.00
2022-11-17T16:15:32.685Z,5.00
2022-11-17T16:20:34.620Z,6.70
2022-11-17T16:25:44.158Z,6.00
2022-11-17T16:30:46.034Z,5.50
2022-11-17T16:35:47.885Z,4.80
2022-11-17T16:40:49.757Z,4.70
2022-11-17T16:45:51.586Z,4.70
2022-11-17T16:50:53.465Z,4.80
2022-11-17T16:55:55.272Z,4.80
2022-11-17T17:00:57.792Z,5.70
2022-11-17T17:06:03.975Z,3.50
2022-11-17T17:11:08.811Z,3.50
2022-11-17T17:16:13.648Z,3.80
2022-11-17T17:21:18.278Z,4.20
2022-11-17T17:26:22.518Z,3.70
2022-11-17T17:31:26.248Z,5.70
2022-11-17T17:36:29.232Z,4.80
2022-11-17T17:41:33.519Z,5.10
2022-11-17T17:46:38.512Z,4.60
2022-11-17T17:51:44.275Z,5.00
2022-11-17T17:56:47.507Z,4.60
2022-11-17T18:01:49.794Z,4.00
2022-11-17T18:06:51.796Z,5.20
2022-11-17T18:11:53.671Z,5.90
2022-11-17T18:16:56.027Z,5.00
2022-11-17T18:21:57.880Z,4.90
2022-11-17T18:26:59.790Z,4.50
2022-11-17T18:32:01.664Z,5.00
2022-11-17T18:37:03.579Z,3.60
2022-11-17T18:42:05.555Z,4.00
2022-11-17T18:47:07.492Z,4.00
2022-11-17T18:52:09.909Z,4.30
2022-11-17T18:57:11.799Z,3.80
2022-11-17T19:02:13.667Z,3.20
2022-11-17T19:07:15.630Z,4.90
2022-11-17T19:12:19.119Z,4.20
2022-11-17T19:17:20.993Z,3.80
2022-11-17T19:22:23.263Z,3.40
2022-11-17T19:27:25.083Z,5.40
2022-11-17T19:32:27.074Z,3.80
2022-11-17T19:37:28.983Z,4.10
2022-11-17T19:42:30.922Z,4.80
2022-11-17T19:47:32.760Z,5.50
2022-11-17T19:52:34.903Z,4.30
2022-11-17T19:57:36.728Z,4.30
2022-11-17T20:02:38.560Z,4.60
2022-11-17T20:07:40.466Z,4.20
2022-11-17T20:12:43.878Z,4.40
2022-11-17T20:17:45.728Z,4.30
2022-11-17T20:22:47.595Z,4.40
2022-11-17T20:27:49.477Z,4.20
2022-11-17T20:32:51.276Z,4.30
2022-11-17T20:37:53.109Z,4.80
2022-11-17T20:42:55.242Z,4.30
2022-11-17T20:47:57.109Z,4.30
2022-11-17T20:52:58.964Z,3.70
2022-11-17T20:58:00.798Z,4.80
2022-11-17T21:03:02.708Z,5.10
2022-11-17T21:08:04.822Z,5.20
2022-11-17T21:13:06.715Z,4.80
2022-11-17T21:18:26.467Z,4.20
2022-11-17T21:23:28.545Z,5.00
2022-11-17T21:28:30.417Z,6.10
2022-11-17T21:33:32.337Z,4.90
2022-11-17T21:38:34.424Z,4.70
2022-11-17T21:43:38.439Z,5.90
2022-11-17T21:48:40.955Z,5.10
2022-11-17T21:53:43.288Z,5.60
2022-11-17T21:58:45.173Z,6.50
2022-11-17T22:03:47.147Z,5.40
2022-11-17T22:08:50.079Z,5.90
2022-11-17T22:13:57.954Z,5.40
2022-11-17T22:18:59.882Z,5.70
2022-11-17T22:24:02.689Z,5.20
2022-11-17T22:29:06.479Z,5.10
2022-11-17T22:34:08.848Z,5.30
2022-11-17T22:39:10.807Z,4.80
2022-11-17T22:44:14.410Z,6.00
2022-11-17T22:49:16.414Z,5.10
2022-11-17T22:54:18.398Z,4.10
2022-11-17T22:59:23.378Z,4.90
2022-11-17T23:04:25.304Z,4.80
2022-11-17T23:09:27.322Z,5.00
2022-11-17T23:14:29.279Z,5.30
2022-11-17T23:19:31.098Z,6.20
2022-11-17T23:24:32.921Z,7.30
2022-11-17T23:29:34.790Z,4.80
2022-11-17T23:34:36.619Z,6.60
2022-11-17T23:39:38.552Z,6.30
2022-11-17T23:44:40.391Z,7.20
2022-11-17T23:49:42.223Z,5.50
2022-11-17T23:54:44.586Z,5.80
2022-11-17T23:59:46.413Z,7.50
